sensor_id;sensor_type;location;lat;lon;timestamp;P1;durP1;ratioP1;P2;durP2;ratioP2
73107;SDS011;61559;50.476;15.588;2023-05-07T00:00:44;8.60;;;5.10;;
73107;SDS011;61559;50.476;15.588;2023-05-07T00:03:21;8.90;;;5.10;;
73107;SDS011;61559;50.476;15.588;2023-05-07T00:05:53;9.40;;;5.70;;
73107;SDS011;61559;50.476;15.588;2023-05-07T00:08:24;9.50;;;5.50;;
73107;SDS011;61559;50.476;15.588;2023-05-07T00:10:58;10.60;;;5.90;;
73107;SDS011;61559;50.476;15.588;2023-05-07T00:13:30;9.80;;;5.30;;
73107;SDS011;61559;50.476;15.588;2023-05-07T00:16:03;9.40;;;5.10;;
73107;SDS011;61559;50.476;15.588;2023-05-07T00:18:35;8.30;;;5.60;;
73107;SDS011;61559;50.476;15.588;2023-05-07T00:21:06;11.60;;;6.30;;
73107;SDS011;61559;50.476;15.588;2023-05-07T00:26:06;7.80;;;4.90;;
73107;SDS011;61559;50.476;15.588;2023-05-07T00:28:37;7.70;;;4.90;;
73107;SDS011;61559;50.476;15.588;2023-05-07T00:31:09;10.20;;;5.60;;
73107;SDS011;61559;50.476;15.588;2023-05-07T00:33:40;8.90;;;5.40;;
73107;SDS011;61559;50.476;15.588;2023-05-07T00:36:11;9.60;;;5.10;;
73107;SDS011;61559;50.476;15.588;2023-05-07T00:41:11;7.30;;;4.50;;
73107;SDS011;61559;50.476;15.588;2023-05-07T00:43:42;12.00;;;6.10;;
73107;SDS011;61559;50.476;15.588;2023-05-07T00:46:13;11.30;;;5.20;;
73107;SDS011;61559;50.476;15.588;2023-05-07T00:48:45;9.70;;;5.60;;
73107;SDS011;61559;50.476;15.588;2023-05-07T00:51:17;9.30;;;5.60;;
73107;SDS011;61559;50.476;15.588;2023-05-07T00:53:49;9.80;;;5.50;;
73107;SDS011;61559;50.476;15.588;2023-05-07T00:56:20;9.90;;;5.90;;
73107;SDS011;61559;50.476;15.588;2023-05-07T00:58:52;11.30;;;5.80;;
73107;SDS011;61559;50.476;15.588;2023-05-07T01:01:24;11.40;;;5.70;;
73107;SDS011;61559;50.476;15.588;2023-05-07T01:03:55;7.60;;;4.70;;
73107;SDS011;61559;50.476;15.588;2023-05-07T01:06:27;7.70;;;4.50;;
73107;SDS011;61559;50.476;15.588;2023-05-07T01:08:59;7.50;;;4.90;;
73107;SDS011;61559;50.476;15.588;2023-05-07T01:11:32;8.80;;;4.70;;
73107;SDS011;61559;50.476;15.588;2023-05-07T01:14:04;8.40;;;4.60;;
73107;SDS011;61559;50.476;15.588;2023-05-07T01:16:36;6.90;;;4.30;;
73107;SDS011;61559;50.476;15.588;2023-05-07T01:19:10;8.90;;;5.10;;
73107;SDS011;61559;50.476;15.588;2023-05-07T01:21:45;9.90;;;5.20;;
73107;SDS011;61559;50.476;15.588;2023-05-07T01:24:17;6.60;;;3.90;;
73107;SDS011;61559;50.476;15.588;2023-05-07T01:26:48;11.50;;;6.00;;
73107;SDS011;61559;50.476;15.588;2023-05-07T01:29:20;7.70;;;4.30;;
73107;SDS011;61559;50.476;15.588;2023-05-07T01:31:51;5.00;;;3.70;;
73107;SDS011;61559;50.476;15.588;2023-05-07T01:34:23;6.20;;;3.30;;
73107;SDS011;61559;50.476;15.588;2023-05-07T01:36:56;6.50;;;3.40;;
73107;SDS011;61559;50.476;15.588;2023-05-07T01:39:28;6.50;;;4.00;;
73107;SDS011;61559;50.476;15.588;2023-05-07T01:42:01;7.70;;;4.60;;
73107;SDS011;61559;50.476;15.588;2023-05-07T01:44:32;7.10;;;4.00;;
73107;SDS011;61559;50.476;15.588;2023-05-07T01:47:04;4.90;;;3.00;;
73107;SDS011;61559;50.476;15.588;2023-05-07T01:49:36;4.20;;;2.40;;
73107;SDS011;61559;50.476;15.588;2023-05-07T01:52:08;5.90;;;3.30;;
73107;SDS011;61559;50.476;15.588;2023-05-07T01:57:09;5.40;;;2.80;;
73107;SDS011;61559;50.476;15.588;2023-05-07T01:59:40;2.70;;;2.10;;
73107;SDS011;61559;50.476;15.588;2023-05-07T02:07:10;3.80;;;2.10;;
73107;SDS011;61559;50.476;15.588;2023-05-07T02:09:41;3.50;;;2.10;;
73107;SDS011;61559;50.476;15.588;2023-05-07T02:12:12;3.50;;;2.20;;
73107;SDS011;61559;50.476;15.588;2023-05-07T02:14:43;3.10;;;2.10;;
73107;SDS011;61559;50.476;15.588;2023-05-07T02:17:14;2.90;;;2.10;;
73107;SDS011;61559;50.476;15.588;2023-05-07T02:22:15;2.70;;;1.80;;
73107;SDS011;61559;50.476;15.588;2023-05-07T02:24:46;2.90;;;2.00;;
73107;SDS011;61559;50.476;15.588;2023-05-07T02:27:17;3.50;;;2.10;;
73107;SDS011;61559;50.476;15.588;2023-05-07T02:29:49;4.00;;;2.00;;
73107;SDS011;61559;50.476;15.588;2023-05-07T02:32:20;3.20;;;1.80;;
73107;SDS011;61559;50.476;15.588;2023-05-07T02:34:51;4.00;;;1.80;;
73107;SDS011;61559;50.476;15.588;2023-05-07T02:37:22;3.30;;;2.00;;
73107;SDS011;61559;50.476;15.588;2023-05-07T02:39:53;2.00;;;1.60;;
73107;SDS011;61559;50.476;15.588;2023-05-07T02:42:24;3.10;;;2.10;;
73107;SDS011;61559;50.476;15.588;2023-05-07T02:44:56;4.20;;;2.20;;
73107;SDS011;61559;50.476;15.588;2023-05-07T02:47:27;3.30;;;2.00;;
73107;SDS011;61559;50.476;15.588;2023-05-07T02:49:58;2.80;;;2.00;;
73107;SDS011;61559;50.476;15.588;2023-05-07T02:52:29;3.10;;;2.00;;
73107;SDS011;61559;50.476;15.588;2023-05-07T02:55:01;3.00;;;2.00;;
73107;SDS011;61559;50.476;15.588;2023-05-07T02:57:32;3.10;;;2.20;;
73107;SDS011;61559;50.476;15.588;2023-05-07T03:00:11;2.90;;;2.00;;
73107;SDS011;61559;50.476;15.588;2023-05-07T03:02:44;1.60;;;1.30;;
73107;SDS011;61559;50.476;15.588;2023-05-07T03:05:15;2.40;;;1.70;;
73107;SDS011;61559;50.476;15.588;2023-05-07T03:07:46;2.40;;;1.60;;
73107;SDS011;61559;50.476;15.588;2023-05-07T03:10:17;2.70;;;1.70;;
73107;SDS011;61559;50.476;15.588;2023-05-07T03:12:49;3.10;;;1.50;;
73107;SDS011;61559;50.476;15.588;2023-05-07T03:17:49;2.70;;;1.60;;
73107;SDS011;61559;50.476;15.588;2023-05-07T03:20:21;2.50;;;1.90;;
73107;SDS011;61559;50.476;15.588;2023-05-07T03:22:52;3.10;;;1.90;;
73107;SDS011;61559;50.476;15.588;2023-05-07T03:27:53;2.90;;;1.70;;
73107;SDS011;61559;50.476;15.588;2023-05-07T03:30:24;2.40;;;1.40;;
73107;SDS011;61559;50.476;15.588;2023-05-07T03:32:55;3.10;;;1.50;;
73107;SDS011;61559;50.476;15.588;2023-05-07T03:35:27;2.50;;;1.60;;
73107;SDS011;61559;50.476;15.588;2023-05-07T03:37:58;2.20;;;1.70;;
73107;SDS011;61559;50.476;15.588;2023-05-07T03:42:58;2.00;;;1.60;;
73107;SDS011;61559;50.476;15.588;2023-05-07T03:45:30;2.50;;;1.60;;
73107;SDS011;61559;50.476;15.588;2023-05-07T03:50:30;1.80;;;1.40;;
73107;SDS011;61559;50.476;15.588;2023-05-07T03:53:02;2.00;;;1.70;;
73107;SDS011;61559;50.476;15.588;2023-05-07T03:55:32;2.20;;;1.80;;
73107;SDS011;61559;50.476;15.588;2023-05-07T03:58:03;2.80;;;1.50;;
73107;SDS011;61559;50.476;15.588;2023-05-07T04:03:08;2.90;;;1.90;;
73107;SDS011;61559;50.476;15.588;2023-05-07T04:05:39;2.60;;;1.70;;
73107;SDS011;61559;50.476;15.588;2023-05-07T04:10:40;1.20;;;1.00;;
73107;SDS011;61559;50.476;15.588;2023-05-07T04:15:40;1.70;;;1.20;;
73107;SDS011;61559;50.476;15.588;2023-05-07T04:20:41;2.20;;;1.30;;
73107;SDS011;61559;50.476;15.588;2023-05-07T04:23:12;2.10;;;1.50;;
73107;SDS011;61559;50.476;15.588;2023-05-07T04:25:43;1.80;;;1.40;;
73107;SDS011;61559;50.476;15.588;2023-05-07T04:28:14;2.20;;;1.50;;
73107;SDS011;61559;50.476;15.588;2023-05-07T04:33:15;2.20;;;1.30;;
73107;SDS011;61559;50.476;15.588;2023-05-07T04:35:46;2.60;;;1.60;;
73107;SDS011;61559;50.476;15.588;2023-05-07T04:38:17;1.80;;;1.30;;
73107;SDS011;61559;50.476;15.588;2023-05-07T04:40:48;2.40;;;1.60;;
73107;SDS011;61559;50.476;15.588;2023-05-07T04:43:19;3.10;;;1.60;;
73107;SDS011;61559;50.476;15.588;2023-05-07T04:48:20;2.40;;;1.50;;
73107;SDS011;61559;50.476;15.588;2023-05-07T04:50:52;2.00;;;1.40;;
73107;SDS011;61559;50.476;15.588;2023-05-07T04:53:23;1.70;;;1.30;;
73107;SDS011;61559;50.476;15.588;2023-05-07T04:58:27;2.00;;;1.50;;
73107;SDS011;61559;50.476;15.588;2023-05-07T05:01:00;1.70;;;1.20;;
73107;SDS011;61559;50.476;15.588;2023-05-07T05:03:31;1.60;;;1.30;;
73107;SDS011;61559;50.476;15.588;2023-05-07T05:08:32;2.20;;;1.20;;
73107;SDS011;61559;50.476;15.588;2023-05-07T05:11:03;1.30;;;1.20;;
73107;SDS011;61559;50.476;15.588;2023-05-07T05:13:34;2.30;;;1.20;;
73107;SDS011;61559;50.476;15.588;2023-05-07T05:16:06;2.70;;;1.40;;
73107;SDS011;61559;50.476;15.588;2023-05-07T05:18:37;1.80;;;1.20;;
73107;SDS011;61559;50.476;15.588;2023-05-07T05:21:09;2.10;;;1.30;;
73107;SDS011;61559;50.476;15.588;2023-05-07T05:26:09;2.30;;;1.20;;
73107;SDS011;61559;50.476;15.588;2023-05-07T05:31:09;1.70;;;1.10;;
73107;SDS011;61559;50.476;15.588;2023-05-07T05:33:42;1.10;;;1.00;;
73107;SDS011;61559;50.476;15.588;2023-05-07T05:38:43;1.30;;;0.90;;
73107;SDS011;61559;50.476;15.588;2023-05-07T05:41:14;1.60;;;1.20;;
73107;SDS011;61559;50.476;15.588;2023-05-07T05:46:14;1.40;;;1.10;;
73107;SDS011;61559;50.476;15.588;2023-05-07T05:48:45;2.40;;;1.30;;
73107;SDS011;61559;50.476;15.588;2023-05-07T05:51:16;1.90;;;1.20;;
73107;SDS011;61559;50.476;15.588;2023-05-07T05:53:48;1.70;;;1.20;;
73107;SDS011;61559;50.476;15.588;2023-05-07T05:58:49;1.20;;;1.00;;
73107;SDS011;61559;50.476;15.588;2023-05-07T06:03:49;1.70;;;1.30;;
73107;SDS011;61559;50.476;15.588;2023-05-07T06:06:20;1.70;;;1.10;;
73107;SDS011;61559;50.476;15.588;2023-05-07T06:08:52;1.40;;;1.00;;
73107;SDS011;61559;50.476;15.588;2023-05-07T06:13:53;0.80;;;0.80;;
73107;SDS011;61559;50.476;15.588;2023-05-07T06:16:25;1.30;;;0.90;;
73107;SDS011;61559;50.476;15.588;2023-05-07T06:18:56;1.90;;;1.40;;
73107;SDS011;61559;50.476;15.588;2023-05-07T06:21:27;1.20;;;0.80;;
73107;SDS011;61559;50.476;15.588;2023-05-07T06:23:59;1.40;;;0.90;;
73107;SDS011;61559;50.476;15.588;2023-05-07T06:26:30;1.30;;;0.90;;
73107;SDS011;61559;50.476;15.588;2023-05-07T06:31:31;1.50;;;1.20;;
73107;SDS011;61559;50.476;15.588;2023-05-07T06:36:31;2.10;;;1.20;;
73107;SDS011;61559;50.476;15.588;2023-05-07T06:41:31;1.50;;;1.10;;
73107;SDS011;61559;50.476;15.588;2023-05-07T06:44:04;2.20;;;1.40;;
73107;SDS011;61559;50.476;15.588;2023-05-07T06:46:37;1.40;;;1.20;;
73107;SDS011;61559;50.476;15.588;2023-05-07T06:49:08;2.00;;;1.30;;
73107;SDS011;61559;50.476;15.588;2023-05-07T06:51:39;1.90;;;1.40;;
73107;SDS011;61559;50.476;15.588;2023-05-07T06:54:10;1.90;;;1.40;;
73107;SDS011;61559;50.476;15.588;2023-05-07T06:56:41;1.20;;;1.00;;
73107;SDS011;61559;50.476;15.588;2023-05-07T07:01:42;1.90;;;1.40;;
73107;SDS011;61559;50.476;15.588;2023-05-07T07:04:13;1.70;;;1.50;;
73107;SDS011;61559;50.476;15.588;2023-05-07T07:06:45;2.60;;;1.80;;
73107;SDS011;61559;50.476;15.588;2023-05-07T07:09:16;1.60;;;1.30;;
73107;SDS011;61559;50.476;15.588;2023-05-07T07:11:51;1.70;;;1.30;;
73107;SDS011;61559;50.476;15.588;2023-05-07T07:14:22;1.90;;;1.50;;
73107;SDS011;61559;50.476;15.588;2023-05-07T07:16:53;2.10;;;1.50;;
73107;SDS011;61559;50.476;15.588;2023-05-07T07:21:53;2.10;;;1.60;;
73107;SDS011;61559;50.476;15.588;2023-05-07T07:24:24;1.30;;;1.20;;
73107;SDS011;61559;50.476;15.588;2023-05-07T07:26:56;1.70;;;1.40;;
73107;SDS011;61559;50.476;15.588;2023-05-07T07:31:56;2.10;;;1.70;;
73107;SDS011;61559;50.476;15.588;2023-05-07T07:34:28;1.70;;;1.30;;
73107;SDS011;61559;50.476;15.588;2023-05-07T07:36:59;2.40;;;1.80;;
73107;SDS011;61559;50.476;15.588;2023-05-07T07:39:33;2.10;;;1.30;;
73107;SDS011;61559;50.476;15.588;2023-05-07T07:42:05;2.80;;;1.80;;
73107;SDS011;61559;50.476;15.588;2023-05-07T07:44:36;2.40;;;1.70;;
73107;SDS011;61559;50.476;15.588;2023-05-07T07:47:09;2.20;;;1.80;;
73107;SDS011;61559;50.476;15.588;2023-05-07T07:49:40;2.00;;;1.40;;
73107;SDS011;61559;50.476;15.588;2023-05-07T07:52:11;1.60;;;1.50;;
73107;SDS011;61559;50.476;15.588;2023-05-07T07:54:42;1.70;;;1.50;;
73107;SDS011;61559;50.476;15.588;2023-05-07T07:59:43;1.70;;;1.60;;
73107;SDS011;61559;50.476;15.588;2023-05-07T08:02:14;2.70;;;1.90;;
73107;SDS011;61559;50.476;15.588;2023-05-07T08:04:45;1.50;;;1.30;;
73107;SDS011;61559;50.476;15.588;2023-05-07T08:07:16;1.90;;;1.60;;
73107;SDS011;61559;50.476;15.588;2023-05-07T08:09:50;1.70;;;1.60;;
73107;SDS011;61559;50.476;15.588;2023-05-07T08:12:21;3.20;;;1.80;;
73107;SDS011;61559;50.476;15.588;2023-05-07T08:14:53;2.20;;;1.60;;
73107;SDS011;61559;50.476;15.588;2023-05-07T08:17:25;2.20;;;1.60;;
73107;SDS011;61559;50.476;15.588;2023-05-07T08:19:56;1.50;;;1.40;;
73107;SDS011;61559;50.476;15.588;2023-05-07T08:22:27;2.30;;;1.50;;
73107;SDS011;61559;50.476;15.588;2023-05-07T08:24:58;2.20;;;1.50;;
73107;SDS011;61559;50.476;15.588;2023-05-07T08:27:32;2.30;;;1.50;;
73107;SDS011;61559;50.476;15.588;2023-05-07T08:30:04;2.30;;;1.60;;
73107;SDS011;61559;50.476;15.588;2023-05-07T08:32:37;1.80;;;1.60;;
73107;SDS011;61559;50.476;15.588;2023-05-07T08:35:08;2.30;;;1.80;;
73107;SDS011;61559;50.476;15.588;2023-05-07T08:37:39;1.90;;;1.60;;
73107;SDS011;61559;50.476;15.588;2023-05-07T08:40:11;2.60;;;2.00;;
73107;SDS011;61559;50.476;15.588;2023-05-07T08:42:43;2.40;;;2.00;;
73107;SDS011;61559;50.476;15.588;2023-05-07T08:45:15;4.10;;;2.30;;
73107;SDS011;61559;50.476;15.588;2023-05-07T08:47:49;2.70;;;2.40;;
73107;SDS011;61559;50.476;15.588;2023-05-07T08:50:24;2.00;;;1.80;;
73107;SDS011;61559;50.476;15.588;2023-05-07T08:52:56;3.60;;;2.60;;
73107;SDS011;61559;50.476;15.588;2023-05-07T08:55:28;3.40;;;2.30;;
73107;SDS011;61559;50.476;15.588;2023-05-07T08:57:59;3.30;;;2.70;;
73107;SDS011;61559;50.476;15.588;2023-05-07T09:00:31;3.20;;;2.20;;
73107;SDS011;61559;50.476;15.588;2023-05-07T09:03:03;5.70;;;2.40;;
73107;SDS011;61559;50.476;15.588;2023-05-07T09:05:35;3.10;;;2.10;;
73107;SDS011;61559;50.476;15.588;2023-05-07T09:10:36;4.60;;;2.50;;
73107;SDS011;61559;50.476;15.588;2023-05-07T09:13:07;2.60;;;2.00;;
73107;SDS011;61559;50.476;15.588;2023-05-07T09:15:41;2.50;;;1.80;;
73107;SDS011;61559;50.476;15.588;2023-05-07T09:18:12;3.90;;;2.70;;
73107;SDS011;61559;50.476;15.588;2023-05-07T09:20:43;4.20;;;3.00;;
73107;SDS011;61559;50.476;15.588;2023-05-07T09:25:44;4.10;;;2.90;;
73107;SDS011;61559;50.476;15.588;2023-05-07T09:28:15;4.90;;;2.90;;
73107;SDS011;61559;50.476;15.588;2023-05-07T09:30:46;3.90;;;2.60;;
73107;SDS011;61559;50.476;15.588;2023-05-07T09:33:18;4.70;;;3.20;;
73107;SDS011;61559;50.476;15.588;2023-05-07T09:35:52;3.90;;;2.50;;
73107;SDS011;61559;50.476;15.588;2023-05-07T09:38:23;3.70;;;2.60;;
73107;SDS011;61559;50.476;15.588;2023-05-07T09:41:03;4.50;;;3.10;;
73107;SDS011;61559;50.476;15.588;2023-05-07T09:43:36;5.90;;;3.10;;
73107;SDS011;61559;50.476;15.588;2023-05-07T09:46:10;4.00;;;2.90;;
73107;SDS011;61559;50.476;15.588;2023-05-07T09:48:43;4.90;;;3.20;;
73107;SDS011;61559;50.476;15.588;2023-05-07T09:51:21;5.20;;;3.30;;
73107;SDS011;61559;50.476;15.588;2023-05-07T09:53:55;4.90;;;3.30;;
73107;SDS011;61559;50.476;15.588;2023-05-07T09:56:28;4.30;;;3.10;;
73107;SDS011;61559;50.476;15.588;2023-05-07T09:59:00;6.70;;;3.60;;
73107;SDS011;61559;50.476;15.588;2023-05-07T10:01:32;5.80;;;3.10;;
73107;SDS011;61559;50.476;15.588;2023-05-07T10:04:05;4.30;;;3.30;;
73107;SDS011;61559;50.476;15.588;2023-05-07T10:06:37;4.50;;;3.30;;
73107;SDS011;61559;50.476;15.588;2023-05-07T10:09:09;5.20;;;3.20;;
73107;SDS011;61559;50.476;15.588;2023-05-07T10:11:40;4.80;;;3.50;;
73107;SDS011;61559;50.476;15.588;2023-05-07T10:14:12;4.70;;;3.60;;
73107;SDS011;61559;50.476;15.588;2023-05-07T10:16:43;4.70;;;3.30;;
73107;SDS011;61559;50.476;15.588;2023-05-07T10:19:16;3.40;;;2.60;;
73107;SDS011;61559;50.476;15.588;2023-05-07T10:21:51;3.40;;;2.50;;
73107;SDS011;61559;50.476;15.588;2023-05-07T10:24:26;3.70;;;2.80;;
73107;SDS011;61559;50.476;15.588;2023-05-07T10:27:02;4.50;;;2.70;;
73107;SDS011;61559;50.476;15.588;2023-05-07T10:29:38;3.10;;;2.10;;
73107;SDS011;61559;50.476;15.588;2023-05-07T10:32:28;3.50;;;2.60;;
73107;SDS011;61559;50.476;15.588;2023-05-07T10:35:06;3.00;;;2.60;;
73107;SDS011;61559;50.476;15.588;2023-05-07T10:37:43;2.90;;;2.30;;
73107;SDS011;61559;50.476;15.588;2023-05-07T10:40:15;3.30;;;2.40;;
73107;SDS011;61559;50.476;15.588;2023-05-07T10:42:57;3.50;;;2.40;;
73107;SDS011;61559;50.476;15.588;2023-05-07T10:45:30;2.80;;;2.10;;
73107;SDS011;61559;50.476;15.588;2023-05-07T10:48:12;3.60;;;3.10;;
73107;SDS011;61559;50.476;15.588;2023-05-07T10:53:58;3.20;;;2.30;;
73107;SDS011;61559;50.476;15.588;2023-05-07T10:56:49;3.00;;;2.10;;
73107;SDS011;61559;50.476;15.588;2023-05-07T10:59:31;3.10;;;2.20;;
73107;SDS011;61559;50.476;15.588;2023-05-07T11:02:09;2.20;;;1.60;;
73107;SDS011;61559;50.476;15.588;2023-05-07T11:04:42;3.40;;;2.50;;
73107;SDS011;61559;50.476;15.588;2023-05-07T11:07:29;2.60;;;2.30;;
73107;SDS011;61559;50.476;15.588;2023-05-07T11:10:05;3.30;;;2.40;;
73107;SDS011;61559;50.476;15.588;2023-05-07T11:13:05;4.40;;;3.10;;
73107;SDS011;61559;50.476;15.588;2023-05-07T11:15:37;3.20;;;2.20;;
73107;SDS011;61559;50.476;15.588;2023-05-07T11:18:11;3.50;;;2.70;;
73107;SDS011;61559;50.476;15.588;2023-05-07T11:20:50;3.30;;;2.70;;
73107;SDS011;61559;50.476;15.588;2023-05-07T11:26:29;3.50;;;2.70;;
73107;SDS011;61559;50.476;15.588;2023-05-07T11:29:11;3.30;;;2.80;;
73107;SDS011;61559;50.476;15.588;2023-05-07T11:31:49;4.10;;;3.60;;
73107;SDS011;61559;50.476;15.588;2023-05-07T11:34:21;4.80;;;3.60;;
73107;SDS011;61559;50.476;15.588;2023-05-07T11:36:54;4.20;;;2.70;;
73107;SDS011;61559;50.476;15.588;2023-05-07T11:39:28;3.30;;;2.80;;
73107;SDS011;61559;50.476;15.588;2023-05-07T11:42:01;2.70;;;2.50;;
73107;SDS011;61559;50.476;15.588;2023-05-07T11:44:42;4.10;;;3.10;;
73107;SDS011;61559;50.476;15.588;2023-05-07T11:47:18;3.50;;;3.10;;
73107;SDS011;61559;50.476;15.588;2023-05-07T11:49:50;4.00;;;3.30;;
73107;SDS011;61559;50.476;15.588;2023-05-07T11:52:23;3.50;;;2.40;;
73107;SDS011;61559;50.476;15.588;2023-05-07T11:54:55;3.30;;;2.70;;
73107;SDS011;61559;50.476;15.588;2023-05-07T11:57:28;5.00;;;3.20;;
73107;SDS011;61559;50.476;15.588;2023-05-07T12:00:00;3.00;;;2.60;;
73107;SDS011;61559;50.476;15.588;2023-05-07T12:02:32;4.40;;;3.00;;
73107;SDS011;61559;50.476;15.588;2023-05-07T12:05:04;3.00;;;2.70;;
73107;SDS011;61559;50.476;15.588;2023-05-07T12:07:36;3.10;;;2.70;;
73107;SDS011;61559;50.476;15.588;2023-05-07T12:10:08;3.80;;;3.20;;
73107;SDS011;61559;50.476;15.588;2023-05-07T12:12:41;4.10;;;3.00;;
73107;SDS011;61559;50.476;15.588;2023-05-07T12:15:16;4.10;;;3.30;;
73107;SDS011;61559;50.476;15.588;2023-05-07T12:17:51;6.00;;;3.10;;
73107;SDS011;61559;50.476;15.588;2023-05-07T12:20:22;4.10;;;3.30;;
73107;SDS011;61559;50.476;15.588;2023-05-07T12:22:54;32.20;;;3.90;;
73107;SDS011;61559;50.476;15.588;2023-05-07T12:25:26;3.60;;;2.50;;
73107;SDS011;61559;50.476;15.588;2023-05-07T12:27:59;2.90;;;2.50;;
73107;SDS011;61559;50.476;15.588;2023-05-07T12:30:32;3.00;;;2.40;;
73107;SDS011;61559;50.476;15.588;2023-05-07T12:33:07;3.00;;;2.20;;
73107;SDS011;61559;50.476;15.588;2023-05-07T12:35:39;3.70;;;2.40;;
73107;SDS011;61559;50.476;15.588;2023-05-07T12:38:11;3.00;;;2.70;;
73107;SDS011;61559;50.476;15.588;2023-05-07T12:40:44;2.20;;;2.00;;
73107;SDS011;61559;50.476;15.588;2023-05-07T12:43:20;2.80;;;2.20;;
73107;SDS011;61559;50.476;15.588;2023-05-07T12:45:54;2.60;;;2.20;;
73107;SDS011;61559;50.476;15.588;2023-05-07T12:48:26;2.50;;;2.30;;
73107;SDS011;61559;50.476;15.588;2023-05-07T12:50:59;2.50;;;2.20;;
73107;SDS011;61559;50.476;15.588;2023-05-07T12:53:31;2.70;;;2.30;;
73107;SDS011;61559;50.476;15.588;2023-05-07T12:56:05;2.80;;;2.50;;
73107;SDS011;61559;50.476;15.588;2023-05-07T12:58:36;4.60;;;3.00;;
73107;SDS011;61559;50.476;15.588;2023-05-07T13:01:09;4.00;;;2.50;;
73107;SDS011;61559;50.476;15.588;2023-05-07T13:03:47;4.30;;;2.60;;
73107;SDS011;61559;50.476;15.588;2023-05-07T13:06:19;4.50;;;2.70;;
73107;SDS011;61559;50.476;15.588;2023-05-07T13:08:50;3.00;;;2.10;;
73107;SDS011;61559;50.476;15.588;2023-05-07T13:11:22;2.50;;;1.90;;
73107;SDS011;61559;50.476;15.588;2023-05-07T13:13:53;4.00;;;2.50;;
73107;SDS011;61559;50.476;15.588;2023-05-07T13:21:23;4.00;;;2.30;;
73107;SDS011;61559;50.476;15.588;2023-05-07T13:23:55;4.70;;;3.00;;
73107;SDS011;61559;50.476;15.588;2023-05-07T13:26:26;2.30;;;1.80;;
73107;SDS011;61559;50.476;15.588;2023-05-07T13:28:59;7.10;;;3.60;;
73107;SDS011;61559;50.476;15.588;2023-05-07T13:31:30;4.40;;;2.90;;
73107;SDS011;61559;50.476;15.588;2023-05-07T13:34:02;8.20;;;3.60;;
73107;SDS011;61559;50.476;15.588;2023-05-07T13:36:33;5.40;;;3.50;;
73107;SDS011;61559;50.476;15.588;2023-05-07T13:39:05;3.40;;;2.50;;
73107;SDS011;61559;50.476;15.588;2023-05-07T13:41:37;4.40;;;2.80;;
73107;SDS011;61559;50.476;15.588;2023-05-07T13:44:08;4.60;;;3.70;;
73107;SDS011;61559;50.476;15.588;2023-05-07T13:46:39;4.60;;;2.90;;
73107;SDS011;61559;50.476;15.588;2023-05-07T13:49:10;5.10;;;3.50;;
73107;SDS011;61559;50.476;15.588;2023-05-07T13:51:42;5.30;;;3.80;;
73107;SDS011;61559;50.476;15.588;2023-05-07T13:54:14;3.40;;;2.90;;
73107;SDS011;61559;50.476;15.588;2023-05-07T13:56:45;6.10;;;3.80;;
73107;SDS011;61559;50.476;15.588;2023-05-07T13:59:16;5.50;;;3.40;;
73107;SDS011;61559;50.476;15.588;2023-05-07T14:04:16;4.20;;;3.20;;
73107;SDS011;61559;50.476;15.588;2023-05-07T14:09:16;2.90;;;2.50;;
73107;SDS011;61559;50.476;15.588;2023-05-07T14:14:19;4.10;;;2.70;;
73107;SDS011;61559;50.476;15.588;2023-05-07T14:16:50;3.80;;;2.30;;
73107;SDS011;61559;50.476;15.588;2023-05-07T14:19:22;3.50;;;2.40;;
73107;SDS011;61559;50.476;15.588;2023-05-07T14:21:53;3.60;;;2.70;;
73107;SDS011;61559;50.476;15.588;2023-05-07T14:24:26;5.60;;;2.60;;
73107;SDS011;61559;50.476;15.588;2023-05-07T14:27:06;4.50;;;2.60;;
73107;SDS011;61559;50.476;15.588;2023-05-07T14:32:06;2.70;;;2.00;;
73107;SDS011;61559;50.476;15.588;2023-05-07T14:34:38;4.40;;;2.70;;
73107;SDS011;61559;50.476;15.588;2023-05-07T14:37:09;4.10;;;3.00;;
73107;SDS011;61559;50.476;15.588;2023-05-07T14:39:41;2.80;;;2.20;;
73107;SDS011;61559;50.476;15.588;2023-05-07T14:42:17;2.90;;;2.40;;
73107;SDS011;61559;50.476;15.588;2023-05-07T14:44:48;2.30;;;1.90;;
73107;SDS011;61559;50.476;15.588;2023-05-07T14:47:21;4.50;;;2.00;;
73107;SDS011;61559;50.476;15.588;2023-05-07T14:49:52;2.80;;;2.00;;
73107;SDS011;61559;50.476;15.588;2023-05-07T14:52:24;3.40;;;2.40;;
73107;SDS011;61559;50.476;15.588;2023-05-07T14:54:55;2.10;;;1.90;;
73107;SDS011;61559;50.476;15.588;2023-05-07T14:57:26;2.30;;;2.00;;
73107;SDS011;61559;50.476;15.588;2023-05-07T15:00:00;6.20;;;2.30;;
73107;SDS011;61559;50.476;15.588;2023-05-07T15:02:33;2.40;;;2.10;;
73107;SDS011;61559;50.476;15.588;2023-05-07T15:05:06;3.80;;;1.90;;
73107;SDS011;61559;50.476;15.588;2023-05-07T15:07:38;2.60;;;2.20;;
73107;SDS011;61559;50.476;15.588;2023-05-07T15:10:09;2.60;;;1.70;;
73107;SDS011;61559;50.476;15.588;2023-05-07T15:12:40;7.70;;;5.00;;
73107;SDS011;61559;50.476;15.588;2023-05-07T15:15:11;2.40;;;1.50;;
73107;SDS011;61559;50.476;15.588;2023-05-07T15:17:43;3.30;;;1.90;;
73107;SDS011;61559;50.476;15.588;2023-05-07T15:20:14;17.20;;;8.20;;
73107;SDS011;61559;50.476;15.588;2023-05-07T15:22:45;3.60;;;2.40;;
73107;SDS011;61559;50.476;15.588;2023-05-07T15:25:16;1.90;;;1.70;;
73107;SDS011;61559;50.476;15.588;2023-05-07T15:27:48;2.20;;;1.80;;
73107;SDS011;61559;50.476;15.588;2023-05-07T15:30:22;1.90;;;1.40;;
73107;SDS011;61559;50.476;15.588;2023-05-07T15:32:55;1.70;;;1.50;;
73107;SDS011;61559;50.476;15.588;2023-05-07T15:35:27;2.00;;;1.50;;
73107;SDS011;61559;50.476;15.588;2023-05-07T15:37:58;3.20;;;1.90;;
73107;SDS011;61559;50.476;15.588;2023-05-07T15:40:31;2.80;;;2.00;;
73107;SDS011;61559;50.476;15.588;2023-05-07T15:43:03;2.00;;;1.80;;
73107;SDS011;61559;50.476;15.588;2023-05-07T15:45:34;4.00;;;1.90;;
73107;SDS011;61559;50.476;15.588;2023-05-07T15:48:09;4.20;;;1.90;;
73107;SDS011;61559;50.476;15.588;2023-05-07T15:50:40;3.50;;;2.50;;
73107;SDS011;61559;50.476;15.588;2023-05-07T15:53:12;3.50;;;2.00;;
73107;SDS011;61559;50.476;15.588;2023-05-07T15:55:43;2.90;;;2.20;;
73107;SDS011;61559;50.476;15.588;2023-05-07T15:58:16;3.30;;;2.20;;
73107;SDS011;61559;50.476;15.588;2023-05-07T16:00:48;4.00;;;2.60;;
73107;SDS011;61559;50.476;15.588;2023-05-07T16:03:20;3.20;;;2.10;;
73107;SDS011;61559;50.476;15.588;2023-05-07T16:05:52;5.40;;;2.70;;
73107;SDS011;61559;50.476;15.588;2023-05-07T16:08:24;2.50;;;2.20;;
73107;SDS011;61559;50.476;15.588;2023-05-07T16:10:55;3.30;;;2.40;;
73107;SDS011;61559;50.476;15.588;2023-05-07T16:13:26;4.10;;;2.60;;
73107;SDS011;61559;50.476;15.588;2023-05-07T16:15:58;2.30;;;2.10;;
73107;SDS011;61559;50.476;15.588;2023-05-07T16:18:29;3.70;;;2.30;;
73107;SDS011;61559;50.476;15.588;2023-05-07T16:21:00;3.30;;;2.30;;
73107;SDS011;61559;50.476;15.588;2023-05-07T16:23:31;3.80;;;2.40;;
73107;SDS011;61559;50.476;15.588;2023-05-07T16:26:03;3.30;;;2.30;;
73107;SDS011;61559;50.476;15.588;2023-05-07T16:28:34;5.60;;;2.30;;
73107;SDS011;61559;50.476;15.588;2023-05-07T16:31:07;3.70;;;2.10;;
73107;SDS011;61559;50.476;15.588;2023-05-07T16:33:38;6.00;;;4.00;;
73107;SDS011;61559;50.476;15.588;2023-05-07T16:36:09;3.10;;;2.10;;
73107;SDS011;61559;50.476;15.588;2023-05-07T16:38:40;3.20;;;2.20;;
73107;SDS011;61559;50.476;15.588;2023-05-07T16:41:11;4.20;;;2.60;;
73107;SDS011;61559;50.476;15.588;2023-05-07T16:43:43;5.50;;;3.20;;
73107;SDS011;61559;50.476;15.588;2023-05-07T16:48:43;5.40;;;2.40;;
73107;SDS011;61559;50.476;15.588;2023-05-07T16:51:15;3.50;;;2.30;;